sensor_id;sensor_type;location;lat;lon;timestamp;pressure;altitude;pressure_sealevel;temperature;humidity
71770;BME280;66386;52.122;5.420;2023-03-03T00:01:16;102660.78;;;0.43;92.39
71770;BME280;66386;52.122;5.420;2023-03-03T00:03:42;102659.00;;;0.40;92.34
71770;BME280;66386;52.122;5.420;2023-03-03T00:06:12;102665.63;;;0.37;92.24
71770;BME280;66386;52.122;5.420;2023-03-03T00:08:39;102669.78;;;0.34;92.34
71770;BME280;66386;52.122;5.420;2023-03-03T00:11:06;102669.66;;;0.31;92.30
71770;BME280;66386;52.122;5.420;2023-03-03T00:13:43;102668.75;;;0.29;92.08
71770;BME280;66386;52.122;5.420;2023-03-03T00:16:29;102660.28;;;0.29;92.53
71770;BME280;66386;52.122;5.420;2023-03-03T00:18:56;102667.03;;;0.28;92.45
71770;BME280;66386;52.122;5.420;2023-03-03T00:21:39;102661.13;;;0.28;92.60
71770;BME280;66386;52.122;5.420;2023-03-03T00:24:34;102661.97;;;0.28;92.63
71770;BME280;66386;52.122;5.420;2023-03-03T00:27:17;102673.00;;;0.30;92.74
71770;BME280;66386;52.122;5.420;2023-03-03T00:29:47;102671.41;;;0.32;92.80
71770;BME280;66386;52.122;5.420;2023-03-03T00:34:50;102675.81;;;0.38;92.97
71770;BME280;66386;52.122;5.420;2023-03-03T00:37:28;102679.28;;;0.42;92.91
71770;BME280;66386;52.122;5.420;2023-03-03T00:42:55;102681.88;;;0.43;93.08
71770;BME280;66386;52.122;5.420;2023-03-03T00:45:33;102688.66;;;0.44;93.12
71770;BME280;66386;52.122;5.420;2023-03-03T00:51:15;102686.19;;;0.46;93.10
71770;BME280;66386;52.122;5.420;2023-03-03T00:53:45;102681.94;;;0.45;93.04
71770;BME280;66386;52.122;5.420;2023-03-03T00:56:13;102686.13;;;0.44;93.07
71770;BME280;66386;52.122;5.420;2023-03-03T00:58:39;102683.66;;;0.46;92.95
71770;BME280;66386;52.122;5.420;2023-03-03T01:01:06;102683.66;;;0.46;92.92
71770;BME280;66386;52.122;5.420;2023-03-03T01:03:33;102692.97;;;0.47;93.08
71770;BME280;66386;52.122;5.420;2023-03-03T01:05:59;102687.88;;;0.45;93.03
71770;BME280;66386;52.122;5.420;2023-03-03T01:08:26;102695.47;;;0.45;92.90
71770;BME280;66386;52.122;5.420;2023-03-03T01:10:57;102696.19;;;0.43;92.92
71770;BME280;66386;52.122;5.420;2023-03-03T01:13:28;102692.00;;;0.43;92.87
71770;BME280;66386;52.122;5.420;2023-03-03T01:15:56;102697.06;;;0.43;92.96
71770;BME280;66386;52.122;5.420;2023-03-03T01:18:23;102700.44;;;0.44;92.72
71770;BME280;66386;52.122;5.420;2023-03-03T01:20:49;102697.91;;;0.44;92.99
71770;BME280;66386;52.122;5.420;2023-03-03T01:23:17;102690.41;;;0.45;92.83
71770;BME280;66386;52.122;5.420;2023-03-03T01:25:44;102690.44;;;0.47;92.70
71770;BME280;66386;52.122;5.420;2023-03-03T01:28:11;102691.34;;;0.49;92.85
71770;BME280;66386;52.122;5.420;2023-03-03T01:30:37;102694.63;;;0.46;92.90
71770;BME280;66386;52.122;5.420;2023-03-03T01:33:04;102690.41;;;0.45;92.84
71770;BME280;66386;52.122;5.420;2023-03-03T01:35:30;102691.25;;;0.46;92.86
71770;BME280;66386;52.122;5.420;2023-03-03T01:37:57;102687.03;;;0.46;92.96
71770;BME280;66386;52.122;5.420;2023-03-03T01:40:27;102693.78;;;0.46;92.82
71770;BME280;66386;52.122;5.420;2023-03-03T01:42:54;102698.00;;;0.45;92.81
71770;BME280;66386;52.122;5.420;2023-03-03T01:45:29;102698.03;;;0.47;92.85
71770;BME280;66386;52.122;5.420;2023-03-03T01:48:03;102698.03;;;0.47;92.71
71770;BME280;66386;52.122;5.420;2023-03-03T01:53:11;102703.94;;;0.47;92.73
71770;BME280;66386;52.122;5.420;2023-03-03T01:55:40;102691.34;;;0.49;92.55
71770;BME280;66386;52.122;5.420;2023-03-03T02:00:37;102699.75;;;0.48;92.59
71770;BME280;66386;52.122;5.420;2023-03-03T02:03:04;102692.97;;;0.47;92.67
71770;BME280;66386;52.122;5.420;2023-03-03T02:05:31;102699.69;;;0.46;92.62
71770;BME280;66386;52.122;5.420;2023-03-03T02:07:58;102692.94;;;0.45;92.49
71770;BME280;66386;52.122;5.420;2023-03-03T02:10:25;102692.84;;;0.44;92.57
71770;BME280;66386;52.122;5.420;2023-03-03T02:12:54;102697.84;;;0.42;92.72
71770;BME280;66386;52.122;5.420;2023-03-03T02:15:22;102705.50;;;0.44;92.62
71770;BME280;66386;52.122;5.420;2023-03-03T02:17:53;102701.25;;;0.43;92.68
71770;BME280;66386;52.122;5.420;2023-03-03T02:26:14;102698.69;;;0.41;92.81
71770;BME280;66386;52.122;5.420;2023-03-03T02:28:42;102706.28;;;0.41;92.75
71770;BME280;66386;52.122;5.420;2023-03-03T02:31:12;102695.16;;;0.38;92.72
71770;BME280;66386;52.122;5.420;2023-03-03T02:33:45;102694.25;;;0.36;92.66
71770;BME280;66386;52.122;5.420;2023-03-03T02:36:15;102690.06;;;0.36;92.36
71770;BME280;66386;52.122;5.420;2023-03-03T02:38:47;102698.44;;;0.35;92.46
71770;BME280;66386;52.122;5.420;2023-03-03T02:41:41;102697.69;;;0.38;92.43
71770;BME280;66386;52.122;5.420;2023-03-03T02:44:12;102700.16;;;0.36;92.24
71770;BME280;66386;52.122;5.420;2023-03-03T02:46:41;102695.91;;;0.35;92.32
71770;BME280;66386;52.122;5.420;2023-03-03T02:49:10;102690.06;;;0.36;92.29
71770;BME280;66386;52.122;5.420;2023-03-03T02:51:38;102691.78;;;0.37;92.27
71770;BME280;66386;52.122;5.420;2023-03-03T02:54:06;102690.09;;;0.38;92.08
71770;BME280;66386;52.122;5.420;2023-03-03T02:56:33;102691.72;;;0.36;92.19
71770;BME280;66386;52.122;5.420;2023-03-03T02:59:00;102700.16;;;0.36;92.19
71770;BME280;66386;52.122;5.420;2023-03-03T03:01:26;102700.22;;;0.38;92.25
71770;BME280;66386;52.122;5.420;2023-03-03T03:03:53;102702.75;;;0.38;92.12
71770;BME280;66386;52.122;5.420;2023-03-03T03:06:19;102706.13;;;0.37;91.94
71770;BME280;66386;52.122;5.420;2023-03-03T03:08:46;102706.13;;;0.37;91.99
71770;BME280;66386;52.122;5.420;2023-03-03T03:11:12;102706.97;;;0.37;91.96
71770;BME280;66386;52.122;5.420;2023-03-03T03:13:39;102706.13;;;0.37;92.08
71770;BME280;66386;52.122;5.420;2023-03-03T03:16:06;102699.31;;;0.36;92.03
71770;BME280;66386;52.122;5.420;2023-03-03T03:18:32;102701.81;;;0.34;92.11
71770;BME280;66386;52.122;5.420;2023-03-03T03:21:10;102701.81;;;0.34;92.02
71770;BME280;66386;52.122;5.420;2023-03-03T03:23:38;102695.06;;;0.34;92.08
71770;BME280;66386;52.122;5.420;2023-03-03T03:26:05;102690.94;;;0.37;92.16
71770;BME280;66386;52.122;5.420;2023-03-03T03:28:32;102694.25;;;0.36;91.85
71770;BME280;66386;52.122;5.420;2023-03-03T03:30:59;102694.22;;;0.34;92.16
71770;BME280;66386;52.122;5.420;2023-03-03T03:33:25;102696.00;;;0.37;92.03
71770;BME280;66386;52.122;5.420;2023-03-03T03:35:54;102700.16;;;0.36;92.06
71770;BME280;66386;52.122;5.420;2023-03-03T03:38:22;102700.13;;;0.34;92.13
71770;BME280;66386;52.122;5.420;2023-03-03T03:40:48;102699.22;;;0.32;92.15
71770;BME280;66386;52.122;5.420;2023-03-03T03:43:15;102699.28;;;0.34;92.27
71770;BME280;66386;52.122;5.420;2023-03-03T03:45:42;102700.16;;;0.36;92.33
71770;BME280;66386;52.122;5.420;2023-03-03T03:48:09;102711.22;;;0.38;92.35
71770;BME280;66386;52.122;5.420;2023-03-03T03:50:36;102706.16;;;0.38;92.47
71770;BME280;66386;52.122;5.420;2023-03-03T03:53:03;102701.06;;;0.37;92.29
71770;BME280;66386;52.122;5.420;2023-03-03T03:55:33;102704.38;;;0.36;92.26
71770;BME280;66386;52.122;5.420;2023-03-03T03:57:59;102706.13;;;0.37;92.51
71770;BME280;66386;52.122;5.420;2023-03-03T04:00:26;102712.88;;;0.38;92.49
71770;BME280;66386;52.122;5.420;2023-03-03T04:02:52;102716.34;;;0.40;92.43
71770;BME280;66386;52.122;5.420;2023-03-03T04:05:20;102714.59;;;0.39;92.52
71770;BME280;66386;52.122;5.420;2023-03-03T04:07:46;102721.34;;;0.38;92.56
71770;BME280;66386;52.122;5.420;2023-03-03T04:10:13;102708.63;;;0.37;92.62
71770;BME280;66386;52.122;5.420;2023-03-03T04:12:39;102723.00;;;0.38;92.50
71770;BME280;66386;52.122;5.420;2023-03-03T04:15:11;102717.88;;;0.36;92.51
71770;BME280;66386;52.122;5.420;2023-03-03T04:17:39;102711.97;;;0.36;92.54
71770;BME280;66386;52.122;5.420;2023-03-03T04:20:06;102717.06;;;0.37;92.73
71770;BME280;66386;52.122;5.420;2023-03-03T04:22:33;102711.16;;;0.37;92.82
71770;BME280;66386;52.122;5.420;2023-03-03T04:25:05;102710.34;;;0.38;92.68
71770;BME280;66386;52.122;5.420;2023-03-03T04:27:36;102715.41;;;0.38;92.72
71770;BME280;66386;52.122;5.420;2023-03-03T04:30:03;102717.94;;;0.38;92.69
71770;BME280;66386;52.122;5.420;2023-03-03T04:32:30;102719.72;;;0.40;92.92
71770;BME280;66386;52.122;5.420;2023-03-03T04:34:59;102714.66;;;0.40;92.69
71770;BME280;66386;52.122;5.420;2023-03-03T04:37:34;102710.44;;;0.41;93.05
71770;BME280;66386;52.122;5.420;2023-03-03T04:40:02;102710.44;;;0.41;92.85
71770;BME280;66386;52.122;5.420;2023-03-03T04:42:28;102712.19;;;0.42;92.82
71770;BME280;66386;52.122;5.420;2023-03-03T04:44:55;102716.38;;;0.41;92.86
71770;BME280;66386;52.122;5.420;2023-03-03T04:47:21;102716.34;;;0.40;92.84
71770;BME280;66386;52.122;5.420;2023-03-03T04:49:48;102717.97;;;0.39;93.04
71770;BME280;66386;52.122;5.420;2023-03-03T04:52:15;102723.97;;;0.41;93.12
71770;BME280;66386;52.122;5.420;2023-03-03T04:54:41;102729.88;;;0.42;93.12
71770;BME280;66386;52.122;5.420;2023-03-03T04:57:08;102723.94;;;0.40;93.20
71770;BME280;66386;52.122;5.420;2023-03-03T04:59:35;102722.25;;;0.40;93.13
71770;BME280;66386;52.122;5.420;2023-03-03T05:02:02;102723.97;;;0.41;93.08
71770;BME280;66386;52.122;5.420;2023-03-03T05:04:30;102720.56;;;0.41;93.42
71770;BME280;66386;52.122;5.420;2023-03-03T05:06:57;102723.09;;;0.41;93.31
71770;BME280;66386;52.122;5.420;2023-03-03T05:09:24;102713.03;;;0.42;93.54
71770;BME280;66386;52.122;5.420;2023-03-03T05:11:50;102713.09;;;0.44;93.57
71770;BME280;66386;52.122;5.420;2023-03-03T05:14:17;102718.13;;;0.44;93.48
71770;BME280;66386;52.122;5.420;2023-03-03T05:16:44;102718.22;;;0.45;93.65
71770;BME280;66386;52.122;5.420;2023-03-03T05:19:10;102719.13;;;0.47;93.76
71770;BME280;66386;52.122;5.420;2023-03-03T05:21:37;102714.88;;;0.46;93.67
71770;BME280;66386;52.122;5.420;2023-03-03T05:24:08;102716.66;;;0.49;93.72
71770;BME280;66386;52.122;5.420;2023-03-03T05:26:35;102715.84;;;0.50;93.91
71770;BME280;66386;52.122;5.420;2023-03-03T05:29:02;102717.50;;;0.49;93.98
71770;BME280;66386;52.122;5.420;2023-03-03T05:31:29;102716.69;;;0.50;94.18
71770;BME280;66386;52.122;5.420;2023-03-03T05:33:55;102717.56;;;0.51;94.22
71770;BME280;66386;52.122;5.420;2023-03-03T05:36:22;102721.88;;;0.54;94.08
71770;BME280;66386;52.122;5.420;2023-03-03T05:38:48;102713.47;;;0.55;94.29
71770;BME280;66386;52.122;5.420;2023-03-03T05:41:15;102721.06;;;0.55;94.06
71770;BME280;66386;52.122;5.420;2023-03-03T05:43:42;102715.16;;;0.54;94.14
71770;BME280;66386;52.122;5.420;2023-03-03T05:46:09;102722.03;;;0.58;94.30
71770;BME280;66386;52.122;5.420;2023-03-03T05:48:35;102722.03;;;0.58;94.32
71770;BME280;66386;52.122;5.420;2023-03-03T05:51:02;102728.81;;;0.59;94.54
71770;BME280;66386;52.122;5.420;2023-03-03T05:53:29;102724.59;;;0.60;94.43
71770;BME280;66386;52.122;5.420;2023-03-03T05:55:55;102727.19;;;0.61;94.38
71770;BME280;66386;52.122;5.420;2023-03-03T05:58:22;102720.44;;;0.60;94.53
71770;BME280;66386;52.122;5.420;2023-03-03T06:00:49;102717.94;;;0.62;94.63
71770;BME280;66386;52.122;5.420;2023-03-03T06:03:15;102728.16;;;0.65;94.51
71770;BME280;66386;52.122;5.420;2023-03-03T06:05:43;102723.09;;;0.65;94.46
71770;BME280;66386;52.122;5.420;2023-03-03T06:08:09;102726.50;;;0.65;94.87
71770;BME280;66386;52.122;5.420;2023-03-03T06:10:36;102729.91;;;0.66;94.77
71770;BME280;66386;52.122;5.420;2023-03-03T06:13:02;102732.47;;;0.67;94.83
71770;BME280;66386;52.122;5.420;2023-03-03T06:15:29;102735.06;;;0.69;94.76
71770;BME280;66386;52.122;5.420;2023-03-03T06:17:55;102738.44;;;0.69;94.77
71770;BME280;66386;52.122;5.420;2023-03-03T06:20:22;102739.38;;;0.72;94.82
71770;BME280;66386;52.122;5.420;2023-03-03T06:22:48;102746.97;;;0.72;94.87
71770;BME280;66386;52.122;5.420;2023-03-03T06:25:15;102739.38;;;0.72;94.83
71770;BME280;66386;52.122;5.420;2023-03-03T06:27:41;102735.22;;;0.74;95.01
71770;BME280;66386;52.122;5.420;2023-03-03T06:30:08;102745.41;;;0.75;95.25
71770;BME280;66386;52.122;5.420;2023-03-03T06:32:35;102750.47;;;0.75;94.90
71770;BME280;66386;52.122;5.420;2023-03-03T06:35:01;102744.53;;;0.75;95.12
71770;BME280;66386;52.122;5.420;2023-03-03T06:37:28;102736.94;;;0.75;95.30
71770;BME280;66386;52.122;5.420;2023-03-03T06:39:54;102746.19;;;0.74;95.37
71770;BME280;66386;52.122;5.420;2023-03-03T06:42:21;102753.84;;;0.76;95.42
71770;BME280;66386;52.122;5.420;2023-03-03T06:44:50;102748.03;;;0.78;95.46
71770;BME280;66386;52.122;5.420;2023-03-03T06:47:16;102765.78;;;0.80;95.58
71770;BME280;66386;52.122;5.420;2023-03-03T06:49:43;102760.78;;;0.81;95.47
71770;BME280;66386;52.122;5.420;2023-03-03T06:52:17;102760.88;;;0.84;95.70
71770;BME280;66386;52.122;5.420;2023-03-03T06:54:45;102766.06;;;0.87;95.67
71770;BME280;66386;52.122;5.420;2023-03-03T06:57:28;102760.19;;;0.89;95.79
71770;BME280;66386;52.122;5.420;2023-03-03T06:59:59;102771.25;;;0.91;95.74
71770;BME280;66386;52.122;5.420;2023-03-03T07:02:27;102767.13;;;0.94;95.98
71770;BME280;66386;52.122;5.420;2023-03-03T07:04:55;102780.75;;;0.98;95.72
71770;BME280;66386;52.122;5.420;2023-03-03T07:07:24;102764.81;;;1.00;95.71
71770;BME280;66386;52.122;5.420;2023-03-03T07:09:53;102780.09;;;1.03;95.75
71770;BME280;66386;52.122;5.420;2023-03-03T07:12:26;102780.19;;;1.07;95.70
71770;BME280;66386;52.122;5.420;2023-03-03T07:17:49;102782.03;;;1.11;95.81
71770;BME280;66386;52.122;5.420;2023-03-03T07:20:23;102790.66;;;1.16;95.80
71770;BME280;66386;52.122;5.420;2023-03-03T07:22:50;102789.91;;;1.18;95.89
71770;BME280;66386;52.122;5.420;2023-03-03T07:25:30;102795.06;;;1.21;95.69
71770;BME280;66386;52.122;5.420;2023-03-03T07:27:59;102793.41;;;1.22;95.65
71770;BME280;66386;52.122;5.420;2023-03-03T07:30:33;102789.22;;;1.24;95.58
71770;BME280;66386;52.122;5.420;2023-03-03T07:32:59;102790.97;;;1.25;95.51
71770;BME280;66386;52.122;5.420;2023-03-03T07:35:39;102789.50;;;1.32;95.60
71770;BME280;66386;52.122;5.420;2023-03-03T07:40:56;102798.00;;;1.34;95.42
71770;BME280;66386;52.122;5.420;2023-03-03T07:44:05;102804.84;;;1.36;95.40
71770;BME280;66386;52.122;5.420;2023-03-03T07:46:42;102805.84;;;1.42;95.42
71770;BME280;66386;52.122;5.420;2023-03-03T07:51:45;102817.91;;;1.49;95.45
71770;BME280;66386;52.122;5.420;2023-03-03T07:56:38;102813.88;;;1.54;95.40
71770;BME280;66386;52.122;5.420;2023-03-03T07:59:20;102820.66;;;1.55;95.27
71770;BME280;66386;52.122;5.420;2023-03-03T08:01:51;102818.19;;;1.56;95.31
71770;BME280;66386;52.122;5.420;2023-03-03T08:04:21;102827.53;;;1.59;95.36
71770;BME280;66386;52.122;5.420;2023-03-03T08:06:52;102829.41;;;1.65;95.35
71770;BME280;66386;52.122;5.420;2023-03-03T08:14:34;102840.56;;;1.70;95.08
71770;BME280;66386;52.122;5.420;2023-03-03T08:17:08;102842.34;;;1.72;95.34
71770;BME280;66386;52.122;5.420;2023-03-03T08:19:39;102844.16;;;1.77;95.05
71770;BME280;66386;52.122;5.420;2023-03-03T08:22:14;102845.13;;;1.80;94.97
71770;BME280;66386;52.122;5.420;2023-03-03T08:24:41;102846.94;;;1.84;94.91
71770;BME280;66386;52.122;5.420;2023-03-03T08:27:08;102851.31;;;1.88;94.99
71770;BME280;66386;52.122;5.420;2023-03-03T08:29:34;102845.41;;;1.89;94.91
71770;BME280;66386;52.122;5.420;2023-03-03T08:32:00;102857.31;;;1.92;94.76
71770;BME280;66386;52.122;5.420;2023-03-03T08:34:27;102851.50;;;1.95;94.77
71770;BME280;66386;52.122;5.420;2023-03-03T08:36:53;102854.25;;;2.02;94.78
71770;BME280;66386;52.122;5.420;2023-03-03T08:39:23;102851.09;;;2.09;94.79
71770;BME280;66386;52.122;5.420;2023-03-03T08:41:49;102855.41;;;2.12;94.45
71770;BME280;66386;52.122;5.420;2023-03-03T08:44:18;102853.88;;;2.17;94.55
71770;BME280;66386;52.122;5.420;2023-03-03T08:46:45;102855.66;;;2.20;94.37
71770;BME280;66386;52.122;5.420;2023-03-03T08:49:12;102848.06;;;2.21;94.33
71770;BME280;66386;52.122;5.420;2023-03-03T08:51:39;102848.38;;;2.32;94.19
71770;BME280;66386;52.122;5.420;2023-03-03T08:54:05;102852.06;;;2.42;94.12
71770;BME280;66386;52.122;5.420;2023-03-03T08:56:32;102857.19;;;2.43;94.08
71770;BME280;66386;52.122;5.420;2023-03-03T08:58:58;102852.19;;;2.47;93.85
71770;BME280;66386;52.122;5.420;2023-03-03T09:01:28;102851.69;;;2.58;93.91
71770;BME280;66386;52.122;5.420;2023-03-03T09:03:55;102850.28;;;2.68;93.39
71770;BME280;66386;52.122;5.420;2023-03-03T09:06:22;102860.72;;;2.77;93.23
71770;BME280;66386;52.122;5.420;2023-03-03T09:08:48;102854.84;;;2.80;92.86
71770;BME280;66386;52.122;5.420;2023-03-03T09:11:22;102852.50;;;2.86;92.68
71770;BME280;66386;52.122;5.420;2023-03-03T09:13:49;102859.59;;;2.98;92.36
71770;BME280;66386;52.122;5.420;2023-03-03T09:16:18;102853.75;;;3.02;92.04
71770;BME280;66386;52.122;5.420;2023-03-03T09:18:47;102852.34;;;3.12;91.97
71770;BME280;66386;52.122;5.420;2023-03-03T09:21:21;102853.31;;;3.17;91.44
71770;BME280;66386;52.122;5.420;2023-03-03T09:23:52;102854.09;;;3.14;91.40
71770;BME280;66386;52.122;5.420;2023-03-03T09:26:29;102849.97;;;3.20;91.14
71770;BME280;66386;52.122;5.420;2023-03-03T09:31:50;102852.94;;;3.35;90.94
71770;BME280;66386;52.122;5.420;2023-03-03T09:36:55;102848.22;;;3.49;90.70
71770;BME280;66386;52.122;5.420;2023-03-03T09:39:26;102854.34;;;3.57;90.24
71770;BME280;66386;52.122;5.420;2023-03-03T09:50:27;102855.81;;;3.84;88.86
71770;BME280;66386;52.122;5.420;2023-03-03T09:53:18;102861.06;;;3.90;88.76
71770;BME280;66386;52.122;5.420;2023-03-03T09:55:59;102863.81;;;3.99;88.62
71770;BME280;66386;52.122;5.420;2023-03-03T10:06:49;102867.50;;;4.50;87.17
71770;BME280;66386;52.122;5.420;2023-03-03T10:09:36;102869.25;;;4.53;85.88
71770;BME280;66386;52.122;5.420;2023-03-03T10:12:14;102866.06;;;4.63;85.38
71770;BME280;66386;52.122;5.420;2023-03-03T10:15:06;102864.94;;;4.93;84.97
71770;BME280;66386;52.122;5.420;2023-03-03T10:17:48;102863.06;;;5.27;84.44
71770;BME280;66386;52.122;5.420;2023-03-03T10:20:29;102857.38;;;5.44;83.37
71770;BME280;66386;52.122;5.420;2023-03-03T10:23:43;102860.38;;;5.71;82.54
71770;BME280;66386;52.122;5.420;2023-03-03T10:34:38;102858.41;;;6.08;80.42
71770;BME280;66386;52.122;5.420;2023-03-03T10:37:23;102853.47;;;6.19;79.60
71770;BME280;66386;52.122;5.420;2023-03-03T10:46:06;102849.25;;;6.23;76.68
71770;BME280;66386;52.122;5.420;2023-03-03T10:57:07;102856.97;;;6.26;76.41
71770;BME280;66386;52.122;5.420;2023-03-03T10:59:59;102847.09;;;6.52;76.29
71770;BME280;66386;52.122;5.420;2023-03-03T11:02:46;102855.81;;;6.71;75.91
71770;BME280;66386;52.122;5.420;2023-03-03T11:05:34;102849.19;;;6.87;74.48
71770;BME280;66386;52.122;5.420;2023-03-03T11:08:16;102847.59;;;6.95;73.91
71770;BME280;66386;52.122;5.420;2023-03-03T11:10:47;102845.28;;;7.20;74.31
71770;BME280;66386;52.122;5.420;2023-03-03T11:14:10;102846.34;;;7.44;73.91
71770;BME280;66386;52.122;5.420;2023-03-03T11:19:06;102846.34;;;7.42;72.03
71770;BME280;66386;52.122;5.420;2023-03-03T11:33:14;102826.25;;;6.93;70.85
71770;BME280;66386;52.122;5.420;2023-03-03T11:35:50;102827.41;;;7.23;70.67
71770;BME280;66386;52.122;5.420;2023-03-03T11:38:43;102829.38;;;7.54;70.14
71770;BME280;66386;52.122;5.420;2023-03-03T11:41:28;102820.13;;;7.73;69.68
71770;BME280;66386;52.122;5.420;2023-03-03T11:44:20;102827.91;;;7.91;68.91
71770;BME280;66386;52.122;5.420;2023-03-03T11:46:51;102829.66;;;7.97;68.64
71770;BME280;66386;52.122;5.420;2023-03-03T11:49:42;102832.09;;;7.77;66.94
71770;BME280;66386;52.122;5.420;2023-03-03T11:52:46;102830.94;;;7.38;66.96
71770;BME280;66386;52.122;5.420;2023-03-03T11:55:38;102821.31;;;7.09;67.50
71770;BME280;66386;52.122;5.420;2023-03-03T12:00:44;102816.78;;;6.86;68.48
71770;BME280;66386;52.122;5.420;2023-03-03T12:03:30;102819.41;;;6.89;69.01
71770;BME280;66386;52.122;5.420;2023-03-03T12:12:15;102817.94;;;7.14;66.45
71770;BME280;66386;52.122;5.420;2023-03-03T12:15:00;102810.91;;;6.93;67.26
71770;BME280;66386;52.122;5.420;2023-03-03T12:23:42;102795.53;;;7.95;65.47
71770;BME280;66386;52.122;5.420;2023-03-03T12:28:54;102791.34;;;8.11;62.97
71770;BME280;66386;52.122;5.420;2023-03-03T12:31:42;102793.13;;;8.32;62.20
71770;BME280;66386;52.122;5.420;2023-03-03T12:34:26;102791.47;;;8.40;62.25
71770;BME280;66386;52.122;5.420;2023-03-03T12:40:00;102796.53;;;8.31;61.90
71770;BME280;66386;52.122;5.420;2023-03-03T12:42:40;102792.00;;;7.74;60.79
71770;BME280;66386;52.122;5.420;2023-03-03T12:45:30;102793.53;;;7.50;62.04
71770;BME280;66386;52.122;5.420;2023-03-03T12:48:07;102788.63;;;7.83;61.48
71770;BME280;66386;52.122;5.420;2023-03-03T12:53:28;102782.78;;;8.10;60.34
71770;BME280;66386;52.122;5.420;2023-03-03T12:56:05;102776.03;;;8.28;59.69
71770;BME280;66386;52.122;5.420;2023-03-03T13:03:54;102779.38;;;8.14;62.09
71770;BME280;66386;52.122;5.420;2023-03-03T13:09:40;102786.09;;;7.89;63.56
71770;BME280;66386;52.122;5.420;2023-03-03T13:15:20;102785.09;;;7.65;64.59
71770;BME280;66386;52.122;5.420;2023-03-03T13:20:33;102781.50;;;7.40;64.87
71770;BME280;66386;52.122;5.420;2023-03-03T13:23:09;102782.31;;;7.33;65.39
71770;BME280;66386;52.122;5.420;2023-03-03T13:26:02;102772.94;;;7.35;65.07
71770;BME280;66386;52.122;5.420;2023-03-03T13:28:35;102774.59;;;7.30;64.26
71770;BME280;66386;52.122;5.420;2023-03-03T13:31:21;102775.47;;;7.29;63.90
71770;BME280;66386;52.122;5.420;2023-03-03T13:33:53;102773.78;;;7.34;63.09
71770;BME280;66386;52.122;5.420;2023-03-03T13:36:25;102772.97;;;7.38;63.39
71770;BME280;66386;52.122;5.420;2023-03-03T13:38:59;102768.75;;;7.43;63.11
71770;BME280;66386;52.122;5.420;2023-03-03T13:41:29;102768.69;;;7.40;64.22
71770;BME280;66386;52.122;5.420;2023-03-03T13:44:42;102776.38;;;7.39;64.25
71770;BME280;66386;52.122;5.420;2023-03-03T13:47:05;102778.91;;;7.36;64.93
71770;BME280;66386;52.122;5.420;2023-03-03T13:49:50;102772.03;;;7.28;65.27
71770;BME280;66386;52.122;5.420;2023-03-03T13:52:21;102774.56;;;7.25;65.09
71770;BME280;66386;52.122;5.420;2023-03-03T13:55:10;102770.22;;;7.18;65.60
71770;BME280;66386;52.122;5.420;2023-03-03T14:00:51;102768.56;;;7.20;65.90
71770;BME280;66386;52.122;5.420;2023-03-03T14:06:19;102761.75;;;7.22;66.40
71770;BME280;66386;52.122;5.420;2023-03-03T14:11:38;102772.72;;;7.07;65.87
71770;BME280;66386;52.122;5.420;2023-03-03T14:17:00;102761.56;;;7.02;66.09
71770;BME280;66386;52.122;5.420;2023-03-03T14:19:36;102771.81;;;7.05;66.13
71770;BME280;66386;52.122;5.420;2023-03-03T14:27:38;102763.28;;;7.03;64.60
71770;BME280;66386;52.122;5.420;2023-03-03T14:35:41;102757.38;;;7.07;63.40
71770;BME280;66386;52.122;5.420;2023-03-03T14:38:14;102753.09;;;7.06;63.29
71770;BME280;66386;52.122;5.420;2023-03-03T14:40:44;102753.06;;;7.05;63.04
71770;BME280;66386;52.122;5.420;2023-03-03T14:43:54;102754.00;;;7.11;62.97
71770;BME280;66386;52.122;5.420;2023-03-03T14:49:31;102748.88;;;7.11;61.41
71770;BME280;66386;52.122;5.420;2023-03-03T14:52:10;102753.97;;;7.07;60.58
71770;BME280;66386;52.122;5.420;2023-03-03T14:54:40;102742.03;;;7.09;60.84
71770;BME280;66386;52.122;5.420;2023-03-03T14:57:16;102742.91;;;7.11;60.85
71770;BME280;66386;52.122;5.420;2023-03-03T14:59:58;102744.59;;;7.09;60.64
71770;BME280;66386;52.122;5.420;2023-03-03T15:02:37;102738.66;;;7.10;61.12
71770;BME280;66386;52.122;5.420;2023-03-03T15:05:25;102736.94;;;7.10;61.34
71770;BME280;66386;52.122;5.420;2023-03-03T15:10:32;102737.78;;;7.12;62.14
71770;BME280;66386;52.122;5.420;2023-03-03T15:18:26;102732.59;;;7.02;63.20
71770;BME280;66386;52.122;5.420;2023-03-03T15:21:04;102737.69;;;6.97;63.32
71770;BME280;66386;52.122;5.420;2023-03-03T15:29:18;102731.53;;;6.78;63.09
71770;BME280;66386;52.122;5.420;2023-03-03T15:32:03;102726.38;;;6.72;63.54
71770;BME280;66386;52.122;5.420;2023-03-03T15:34:39;102725.50;;;6.71;63.52
71770;BME280;66386;52.122;5.420;2023-03-03T15:40:26;102724.69;;;6.74;63.35
71770;BME280;66386;52.122;5.420;2023-03-03T15:45:44;102719.56;;;6.72;63.31
71770;BME280;66386;52.122;5.420;2023-03-03T15:48:23;102711.84;;;6.68;63.76
71770;BME280;66386;52.122;5.420;2023-03-03T15:56:44;102717.72;;;6.59;62.90
71770;BME280;66386;52.122;5.420;2023-03-03T15:59:31;102716.78;;;6.52;63.06
71770;BME280;66386;52.122;5.420;2023-03-03T16:05:02;102709.94;;;6.46;63.35
71770;BME280;66386;52.122;5.420;2023-03-03T16:16:53;102721.84;;;6.46;63.41
71770;BME280;66386;52.122;5.420;2023-03-03T16:19:45;102720.94;;;6.41;63.12
71770;BME280;66386;52.122;5.420;2023-03-03T16:25:35;102724.16;;;6.23;63.21
71770;BME280;66386;52.122;5.420;2023-03-03T16:28:19;102724.13;;;6.21;63.42
71770;BME280;66386;52.122;5.420;2023-03-03T16:33:21;102716.41;;;6.15;63.36
71770;BME280;66386;52.122;5.420;2023-03-03T16:35:59;102716.38;;;6.14;63.38
71770;BME280;66386;52.122;5.420;2023-03-03T16:38:39;102715.50;;;6.13;63.78
71770;BME280;66386;52.122;5.420;2023-03-03T16:41:20;102719.75;;;6.13;63.96
71770;BME280;66386;52.122;5.420;2023-03-03T16:44:00;102713.84;;;6.14;64.02
71770;BME280;66386;52.122;5.420;2023-03-03T16:46:37;102718.03;;;6.11;64.43
71770;BME280;66386;52.122;5.420;2023-03-03T16:49:27;102712.94;;;6.11;64.19